createdAt,value
2022-12-18T00:00:12.237Z,-6.83
2022-12-18T00:01:20.694Z,-6.96
2022-12-18T00:02:22.277Z,-6.89
2022-12-18T00:03:23.993Z,-6.96
2022-12-18T00:04:26.843Z,-6.94
2022-12-18T00:05:28.427Z,-6.96
2022-12-18T00:06:30.716Z,-6.90
2022-12-18T00:07:32.197Z,-6.94
2022-12-18T00:08:33.741Z,-6.93
2022-12-18T00:09:39.617Z,-7.01
2022-12-18T00:10:42.100Z,-6.92
2022-12-18T00:11:44.196Z,-7.09
2022-12-18T00:12:45.754Z,-7.01
2022-12-18T00:13:47.958Z,-7.03
2022-12-18T00:14:49.472Z,-7.03
2022-12-18T00:15:51.031Z,-6.98
2022-12-18T00:16:53.914Z,-7.11
2022-12-18T00:17:55.388Z,-6.99
2022-12-18T00:19:00.100Z,-6.98
2022-12-18T00:20:01.645Z,-6.91
2022-12-18T00:21:05.946Z,-6.84
2022-12-18T00:22:07.499Z,-6.71
2022-12-18T00:23:09.042Z,-6.71
2022-12-18T00:24:11.352Z,-6.73
2022-12-18T00:25:12.882Z,-6.67
2022-12-18T00:26:17.118Z,-6.80
2022-12-18T00:27:18.611Z,-6.82
2022-12-18T00:28:20.113Z,-6.61
2022-12-18T00:29:21.652Z,-6.69
2022-12-18T00:30:23.133Z,-6.84
2022-12-18T00:31:25.785Z,-6.92
2022-12-18T00:32:29.102Z,-6.89
2022-12-18T00:33:31.115Z,-7.17
2022-12-18T00:34:32.655Z,-6.86
2022-12-18T00:35:34.166Z,-6.67
2022-12-18T00:36:35.722Z,-6.96
2022-12-18T00:37:37.310Z,-6.70
2022-12-18T00:38:39.707Z,-6.86
2022-12-18T00:39:41.962Z,-7.06
2022-12-18T00:40:43.462Z,-6.97
2022-12-18T00:41:45.049Z,-6.86
2022-12-18T00:42:46.580Z,-6.98
2022-12-18T00:43:48.085Z,-6.70
2022-12-18T00:44:49.590Z,-6.76
2022-12-18T00:45:51.397Z,-6.69
2022-12-18T00:46:52.894Z,-6.82
2022-12-18T00:47:56.123Z,-6.86
2022-12-18T00:48:57.927Z,-6.69
2022-12-18T00:49:59.413Z,-6.51
2022-12-18T00:51:00.982Z,-6.50
2022-12-18T00:52:02.543Z,-6.57
2022-12-18T00:53:04.103Z,-6.65
2022-12-18T00:54:05.675Z,-6.62
2022-12-18T00:55:07.980Z,-6.76
2022-12-18T00:56:09.488Z,-6.74
2022-12-18T00:57:11.021Z,-6.76
2022-12-18T00:58:14.123Z,-6.94
2022-12-18T00:59:16.103Z,-6.99
2022-12-18T01:00:17.757Z,-6.92
2022-12-18T01:01:19.530Z,-6.85
2022-12-18T01:02:21.190Z,-6.59
2022-12-18T01:03:24.159Z,-6.60
2022-12-18T01:04:25.669Z,-6.76
2022-12-18T01:05:27.491Z,-6.70
2022-12-18T01:06:29.622Z,-6.85
2022-12-18T01:07:31.306Z,-6.94
2022-12-18T01:08:32.812Z,-6.71
2022-12-18T01:09:34.320Z,-6.79
2022-12-18T01:10:35.921Z,-6.90
2022-12-18T01:11:37.587Z,-6.60
2022-12-18T01:12:39.348Z,-6.64
2022-12-18T01:13:41.479Z,-6.67
2022-12-18T01:14:43.379Z,-6.72
2022-12-18T01:15:49.538Z,-6.64
2022-12-18T01:16:51.139Z,-6.90
2022-12-18T01:17:53.366Z,-6.84
2022-12-18T01:18:56.755Z,-6.84
2022-12-18T01:19:58.270Z,-6.76
2022-12-18T01:20:59.830Z,-6.87
2022-12-18T01:22:01.373Z,-6.65
2022-12-18T01:23:02.889Z,-6.63
2022-12-18T01:24:05.375Z,-6.78
2022-12-18T01:25:07.572Z,-6.83
2022-12-18T01:26:12.363Z,-6.70
2022-12-18T01:27:13.989Z,-6.53
2022-12-18T01:28:15.532Z,-6.85
2022-12-18T01:29:17.149Z,-6.57
2022-12-18T01:30:18.846Z,-6.48
2022-12-18T01:31:22.764Z,-6.39
2022-12-18T01:32:24.361Z,-6.73
2022-12-18T01:33:25.859Z,-6.69
2022-12-18T01:34:28.748Z,-6.61
2022-12-18T01:35:30.269Z,-6.71
2022-12-18T01:36:34.511Z,-6.89
2022-12-18T01:37:36.119Z,-6.73
2022-12-18T01:38:37.667Z,-6.61
2022-12-18T01:39:39.236Z,-6.75
2022-12-18T01:40:49.806Z,-6.71
2022-12-18T01:41:51.328Z,-6.80
2022-12-18T01:42:53.339Z,-6.83
2022-12-18T01:43:56.689Z,-6.93
2022-12-18T01:45:02.349Z,-6.60
2022-12-18T01:46:03.882Z,-6.61
2022-12-18T01:47:05.839Z,-6.55
2022-12-18T01:48:08.917Z,-6.50
2022-12-18T01:49:10.509Z,-6.59
2022-12-18T01:50:16.447Z,-6.64
2022-12-18T01:51:18.600Z,-6.44
2022-12-18T01:52:22.222Z,-6.51
2022-12-18T01:53:24.814Z,-6.60
2022-12-18T01:54:26.342Z,-6.59
2022-12-18T01:55:32.287Z,-6.43
2022-12-18T01:56:33.877Z,-6.32
2022-12-18T01:57:36.077Z,-6.73
2022-12-18T01:58:46.783Z,-6.71
2022-12-18T01:59:52.787Z,-6.61
2022-12-18T02:00:55.500Z,-6.80
2022-12-18T02:01:57.936Z,-6.83
2022-12-18T02:02:59.659Z,-6.95
2022-12-18T02:04:21.012Z,-6.82
2022-12-18T02:05:50.024Z,-6.74
2022-12-18T02:06:56.557Z,-6.82
2022-12-18T02:08:08.306Z,-7.08
2022-12-18T02:09:14.629Z,-6.88
2022-12-18T02:10:22.019Z,-6.84
2022-12-18T02:11:33.816Z,-6.80
2022-12-18T02:12:43.142Z,-7.03
2022-12-18T02:13:52.757Z,-6.97
2022-12-18T02:14:59.851Z,-6.94
2022-12-18T02:16:09.679Z,-7.02
2022-12-18T02:17:17.400Z,-6.76
2022-12-18T02:18:22.895Z,-6.81
2022-12-18T02:19:54.316Z,-6.92
2022-12-18T02:21:06.850Z,-6.96
2022-12-18T02:22:25.875Z,-6.78
2022-12-18T02:23:45.794Z,-6.78
2022-12-18T02:25:04.044Z,-6.85
2022-12-18T02:26:17.477Z,-7.08
2022-12-18T02:27:19.963Z,-7.26
2022-12-18T02:28:27.012Z,-6.92
2022-12-18T02:29:33.720Z,-7.02
2022-12-18T02:30:38.311Z,-6.91
2022-12-18T02:31:46.131Z,-6.70
2022-12-18T02:32:51.861Z,-6.63
2022-12-18T02:33:57.066Z,-6.61
2022-12-18T02:35:00.561Z,-6.52
2022-12-18T02:36:03.633Z,-6.46
2022-12-18T02:37:09.853Z,-6.58
2022-12-18T02:38:12.955Z,-6.57
2022-12-18T02:39:16.496Z,-6.51
2022-12-18T02:40:20.387Z,-6.46
2022-12-18T02:41:24.674Z,-6.28
2022-12-18T02:42:27.141Z,-6.40
2022-12-18T02:43:30.460Z,-6.39
2022-12-18T02:44:31.959Z,-6.81
2022-12-18T02:45:33.640Z,-6.82
2022-12-18T02:46:37.705Z,-6.73
2022-12-18T02:47:41.965Z,-6.99
2022-12-18T02:48:43.828Z,-6.79
2022-12-18T02:49:54.299Z,-6.93
2022-12-18T02:51:04.610Z,-7.08
2022-12-18T02:52:14.226Z,-6.89
2022-12-18T02:53:22.378Z,-6.96
2022-12-18T02:54:53.641Z,-6.85
2022-12-18T02:56:03.620Z,-6.56
2022-12-18T02:57:16.298Z,-6.75
2022-12-18T02:58:21.506Z,-7.05
2022-12-18T02:59:31.577Z,-6.97
2022-12-18T03:00:40.328Z,-7.01
2022-12-18T03:01:50.160Z,-7.30
2022-12-18T03:02:58.763Z,-7.01
2022-12-18T03:04:03.884Z,-7.10
2022-12-18T03:05:12.315Z,-7.01
2022-12-18T03:06:19.740Z,-6.98
2022-12-18T03:07:34.186Z,-6.71
2022-12-18T03:08:40.371Z,-7.24
2022-12-18T03:09:45.642Z,-6.83
2022-12-18T03:10:55.919Z,-6.91
2022-12-18T03:12:03.342Z,-6.71
2022-12-18T03:13:09.824Z,-7.05
2022-12-18T03:14:14.649Z,-6.96
2022-12-18T03:15:20.372Z,-7.16
2022-12-18T03:16:25.872Z,-7.11
2022-12-18T03:17:29.336Z,-7.08
2022-12-18T03:18:35.522Z,-6.97
2022-12-18T03:19:37.931Z,-7.04
2022-12-18T03:20:43.694Z,-6.97
2022-12-18T03:21:48.253Z,-6.90
2022-12-18T03:22:54.354Z,-6.85
2022-12-18T03:23:56.823Z,-6.65
2022-12-18T03:25:01.700Z,-6.87
2022-12-18T03:26:08.525Z,-7.14
2022-12-18T03:27:14.843Z,-7.09
2022-12-18T03:28:22.371Z,-7.13
2022-12-18T03:29:27.835Z,-7.28
2022-12-18T03:30:32.176Z,-7.05
2022-12-18T03:31:33.816Z,-6.95
2022-12-18T03:32:42.086Z,-6.98
2022-12-18T03:33:48.116Z,-6.79
2022-12-18T03:34:52.773Z,-6.81
2022-12-18T03:35:54.542Z,-6.83
2022-12-18T03:36:56.095Z,-6.99
2022-12-18T03:37:57.670Z,-7.03
2022-12-18T03:38:59.550Z,-7.29
2022-12-18T03:40:01.103Z,-6.97
2022-12-18T03:41:12.107Z,-6.76
2022-12-18T03:42:22.537Z,-6.86
2022-12-18T03:43:36.790Z,-6.90
2022-12-18T03:44:45.659Z,-7.07
2022-12-18T03:45:55.369Z,-7.00
2022-12-18T03:47:04.427Z,-7.08
2022-12-18T03:48:10.480Z,-7.06
2022-12-18T03:49:20.641Z,-6.94
2022-12-18T03:50:28.764Z,-6.89
2022-12-18T03:51:41.699Z,-7.00
2022-12-18T03:52:50.507Z,-6.85
2022-12-18T03:53:58.423Z,-6.78
2022-12-18T03:55:01.959Z,-6.75
2022-12-18T03:56:05.736Z,-6.57
2022-12-18T03:57:10.638Z,-7.11
2022-12-18T03:58:18.330Z,-6.87
2022-12-18T03:59:22.892Z,-6.90
2022-12-18T04:00:24.426Z,-7.14
2022-12-18T04:01:31.808Z,-7.16
2022-12-18T04:02:35.893Z,-7.28
2022-12-18T04:03:39.796Z,-6.80
2022-12-18T04:04:43.880Z,-6.69
2022-12-18T04:05:48.803Z,-6.81
2022-12-18T04:06:51.931Z,-6.61
2022-12-18T04:07:55.357Z,-6.93
2022-12-18T04:08:58.404Z,-6.79
2022-12-18T04:10:02.668Z,-7.08
2022-12-18T04:11:04.497Z,-7.15
2022-12-18T04:12:07.473Z,-6.90
2022-12-18T04:13:10.486Z,-6.88
2022-12-18T04:14:17.679Z,-6.81
2022-12-18T04:15:20.979Z,-6.82
2022-12-18T04:16:22.528Z,-6.56
2022-12-18T04:17:24.085Z,-6.60
2022-12-18T04:18:25.679Z,-6.69
2022-12-18T04:19:27.332Z,-6.65
2022-12-18T04:20:28.831Z,-6.63
2022-12-18T04:21:30.353Z,-6.61
2022-12-18T04:22:31.883Z,-6.46
2022-12-18T04:23:33.404Z,-6.65
2022-12-18T04:24:59.617Z,-6.45
2022-12-18T04:26:01.140Z,-6.72
2022-12-18T04:27:02.692Z,-6.72
2022-12-18T04:28:04.389Z,-6.98
2022-12-18T04:29:05.926Z,-6.85
2022-12-18T04:30:08.420Z,-6.63
2022-12-18T04:31:11.311Z,-6.62
2022-12-18T04:32:12.856Z,-6.70
2022-12-18T04:33:14.819Z,-6.69
2022-12-18T04:34:16.528Z,-6.94
2022-12-18T04:35:19.036Z,-6.99
2022-12-18T04:36:20.545Z,-6.91
2022-12-18T04:37:22.018Z,-6.84
2022-12-18T04:38:23.561Z,-6.71
2022-12-18T04:39:25.170Z,-6.90
2022-12-18T04:40:27.351Z,-6.89
2022-12-18T04:41:28.852Z,-6.66
2022-12-18T04:42:30.407Z,-6.90
2022-12-18T04:43:31.936Z,-6.95
2022-12-18T04:44:33.482Z,-6.92
2022-12-18T04:45:35.220Z,-7.18
2022-12-18T04:46:38.121Z,-6.82
2022-12-18T04:47:39.675Z,-6.69
2022-12-18T04:48:41.327Z,-6.70
2022-12-18T04:49:42.824Z,-6.97
2022-12-18T04:50:50.510Z,-6.74
2022-12-18T04:51:52.064Z,-6.56
2022-12-18T04:52:53.998Z,-6.43
2022-12-18T04:53:55.514Z,-6.76
2022-12-18T04:54:57.035Z,-6.47
2022-12-18T04:56:06.479Z,-6.77
2022-12-18T04:57:08.005Z,-6.73
2022-12-18T04:58:09.518Z,-7.13
2022-12-18T04:59:11.221Z,-7.33
2022-12-18T05:00:13.623Z,-7.06
2022-12-18T05:01:16.929Z,-6.80
2022-12-18T05:02:19.981Z,-6.78
2022-12-18T05:03:21.666Z,-6.86
2022-12-18T05:04:23.337Z,-7.12
2022-12-18T05:05:24.907Z,-6.98
2022-12-18T05:06:26.475Z,-7.04
2022-12-18T05:07:28.020Z,-7.07
2022-12-18T05:08:29.529Z,-6.84
2022-12-18T05:09:31.071Z,-6.63
2022-12-18T05:10:38.097Z,-6.62
2022-12-18T05:11:40.056Z,-6.53
2022-12-18T05:12:41.563Z,-6.74
2022-12-18T05:13:44.055Z,-6.86
2022-12-18T05:14:50.782Z,-6.68
2022-12-18T05:15:53.570Z,-6.70
2022-12-18T05:17:00.559Z,-6.88
2022-12-18T05:18:04.942Z,-7.29
2022-12-18T05:19:06.486Z,-7.07
2022-12-18T05:20:08.846Z,-7.15
2022-12-18T05:21:10.382Z,-7.25
2022-12-18T05:22:12.833Z,-7.09
2022-12-18T05:23:14.367Z,-7.22
2022-12-18T05:24:16.048Z,-7.23
2022-12-18T05:25:18.314Z,-7.11
2022-12-18T05:26:20.144Z,-7.02
2022-12-18T05:27:21.654Z,-6.83
2022-12-18T05:28:24.415Z,-6.78
2022-12-18T05:29:26.011Z,-6.75
2022-12-18T05:30:27.515Z,-6.47
2022-12-18T05:31:29.145Z,-6.68
2022-12-18T05:32:30.705Z,-7.16
2022-12-18T05:33:35.085Z,-7.03
2022-12-18T05:34:36.569Z,-6.79
2022-12-18T05:35:38.060Z,-6.97
2022-12-18T05:36:39.565Z,-7.15
2022-12-18T05:37:43.173Z,-6.99
2022-12-18T05:38:45.181Z,-7.12
2022-12-18T05:39:46.677Z,-7.33
2022-12-18T05:40:48.923Z,-7.05
2022-12-18T05:41:50.416Z,-7.04
2022-12-18T05:42:51.924Z,-7.23
2022-12-18T05:43:53.451Z,-7.33
2022-12-18T05:44:54.986Z,-7.10
2022-12-18T05:45:57.181Z,-6.96
2022-12-18T05:46:58.750Z,-7.16
2022-12-18T05:48:00.345Z,-7.27
2022-12-18T05:49:03.207Z,-7.56
2022-12-18T05:50:05.829Z,-7.17
2022-12-18T05:51:08.989Z,-7.12
2022-12-18T05:52:10.553Z,-7.14
2022-12-18T05:53:12.808Z,-7.19
2022-12-18T05:54:14.330Z,-6.87
2022-12-18T05:55:15.934Z,-6.86
2022-12-18T05:56:19.880Z,-6.96
2022-12-18T05:57:21.373Z,-7.05
2022-12-18T05:58:22.864Z,-7.32
2022-12-18T05:59:24.563Z,-7.23
2022-12-18T06:00:26.052Z,-7.31
2022-12-18T06:01:27.835Z,-7.41
2022-12-18T06:02:29.491Z,-7.08
2022-12-18T06:03:34.091Z,-7.14
2022-12-18T06:04:37.101Z,-7.43
2022-12-18T06:05:40.488Z,-7.06
2022-12-18T06:06:42.203Z,-6.97
2022-12-18T06:07:43.712Z,-7.21
2022-12-18T06:08:46.715Z,-7.05
2022-12-18T06:09:48.505Z,-6.98
2022-12-18T06:10:53.570Z,-7.38
2022-12-18T06:11:55.089Z,-7.20
2022-12-18T06:12:56.559Z,-7.15
2022-12-18T06:13:59.313Z,-7.41
2022-12-18T06:15:01.672Z,-7.26
2022-12-18T06:16:04.305Z,-6.91
2022-12-18T06:17:05.900Z,-7.27
2022-12-18T06:18:07.433Z,-7.47
2022-12-18T06:19:08.937Z,-7.13
2022-12-18T06:20:11.961Z,-7.28
2022-12-18T06:21:13.510Z,-7.08
2022-12-18T06:22:15.004Z,-7.15
2022-12-18T06:23:16.576Z,-7.01
2022-12-18T06:24:18.095Z,-6.86
2022-12-18T06:25:19.663Z,-6.76
2022-12-18T06:26:27.585Z,-7.04
2022-12-18T06:27:29.713Z,-6.96
2022-12-18T06:28:31.349Z,-7.07
2022-12-18T06:29:32.823Z,-6.84
2022-12-18T06:30:34.405Z,-7.09
2022-12-18T06:31:35.957Z,-7.12
2022-12-18T06:32:37.509Z,-6.87
2022-12-18T06:33:39.699Z,-6.82
2022-12-18T06:34:41.550Z,-6.90
2022-12-18T06:35:44.394Z,-6.62
2022-12-18T06:36:45.949Z,-6.67
2022-12-18T06:37:47.442Z,-7.01
2022-12-18T06:38:48.909Z,-6.84
2022-12-18T06:39:50.382Z,-6.99
2022-12-18T06:40:51.903Z,-7.02
2022-12-18T06:41:53.604Z,-7.10
2022-12-18T06:42:55.180Z,-6.85
2022-12-18T06:44:00.027Z,-6.92
2022-12-18T06:45:01.902Z,-6.66
2022-12-18T06:46:04.806Z,-6.54
2022-12-18T06:47:06.405Z,-7.15
2022-12-18T06:48:07.920Z,-7.21
2022-12-18T06:49:09.453Z,-7.03
2022-12-18T06:50:11.366Z,-6.72
2022-12-18T06:51:17.122Z,-6.62
2022-12-18T06:52:18.613Z,-7.04
2022-12-18T06:53:20.170Z,-6.76
2022-12-18T06:54:21.746Z,-6.57
2022-12-18T06:55:24.046Z,-6.55
2022-12-18T06:56:25.531Z,-6.79
2022-12-18T06:57:27.038Z,-6.54
2022-12-18T06:58:29.120Z,-6.82
2022-12-18T06:59:30.660Z,-6.80
2022-12-18T07:00:32.176Z,-6.68
2022-12-18T07:01:33.797Z,-6.73
2022-12-18T07:02:35.596Z,-6.77
2022-12-18T07:03:38.212Z,-6.75
2022-12-18T07:04:40.015Z,-6.90
2022-12-18T07:05:41.893Z,-6.96
2022-12-18T07:06:44.797Z,-6.91
2022-12-18T07:07:46.374Z,-6.99
2022-12-18T07:08:49.551Z,-6.98
2022-12-18T07:09:51.098Z,-6.94
2022-12-18T07:10:56.066Z,-6.79
2022-12-18T07:11:58.059Z,-6.93
2022-12-18T07:12:59.660Z,-7.12
2022-12-18T07:14:01.288Z,-6.86
2022-12-18T07:15:03.176Z,-7.10
2022-12-18T07:16:15.957Z,-7.42
2022-12-18T07:17:22.891Z,-7.31
2022-12-18T07:18:24.455Z,-7.13
2022-12-18T07:19:29.892Z,-7.05
2022-12-18T07:20:32.376Z,-6.99
2022-12-18T07:21:33.865Z,-6.86
2022-12-18T07:22:36.712Z,-6.78
2022-12-18T07:23:38.833Z,-6.70
2022-12-18T07:24:40.518Z,-6.51
2022-12-18T07:25:42.010Z,-6.87
2022-12-18T07:26:43.490Z,-6.86
2022-12-18T07:27:45.026Z,-6.96
2022-12-18T07:28:47.176Z,-7.40
2022-12-18T07:29:48.723Z,-6.94
2022-12-18T07:30:50.192Z,-6.76
2022-12-18T07:31:51.854Z,-6.61
2022-12-18T07:32:53.440Z,-6.86
2022-12-18T07:33:55.313Z,-6.87
2022-12-18T07:34:56.848Z,-6.72
2022-12-18T07:35:59.624Z,-6.59
2022-12-18T07:37:01.156Z,-6.72
2022-12-18T07:38:04.012Z,-6.37
2022-12-18T07:39:05.669Z,-6.43
2022-12-18T07:40:08.704Z,-6.82
2022-12-18T07:41:12.353Z,-6.96
2022-12-18T07:42:13.855Z,-6.62
2022-12-18T07:43:15.380Z,-6.48
2022-12-18T07:44:16.899Z,-6.77
2022-12-18T07:45:18.466Z,-6.83
2022-12-18T07:46:20.316Z,-6.76
2022-12-18T07:47:21.879Z,-6.72
2022-12-18T07:48:23.453Z,-6.57
2022-12-18T07:49:24.952Z,-6.62
2022-12-18T07:50:26.497Z,-6.98
2022-12-18T07:51:27.997Z,-6.79
2022-12-18T07:52:29.523Z,-6.74
2022-12-18T07:53:33.304Z,-6.55
2022-12-18T07:54:34.829Z,-6.46
2022-12-18T07:55:59.957Z,-6.41
2022-12-18T07:56:57.840Z,-6.43
2022-12-18T07:58:02.422Z,-6.65
2022-12-18T07:59:03.921Z,-6.72
2022-12-18T08:00:06.794Z,-6.37
2022-12-18T08:01:10.766Z,-6.37
2022-12-18T08:02:13.242Z,-6.39
2022-12-18T08:03:14.965Z,-6.49
2022-12-18T08:04:16.675Z,-6.65
2022-12-18T08:05:18.389Z,-6.52
2022-12-18T08:06:22.433Z,-6.58
2022-12-18T08:07:26.055Z,-6.51
2022-12-18T08:08:27.685Z,-6.62
2022-12-18T08:09:30.557Z,-6.79
2022-12-18T08:10:32.196Z,-6.70
2022-12-18T08:11:33.712Z,-6.64
2022-12-18T08:12:35.260Z,-6.72
2022-12-18T08:13:37.098Z,-6.72
2022-12-18T08:14:38.730Z,-6.62
2022-12-18T08:15:40.250Z,-6.53
2022-12-18T08:16:41.800Z,-6.80
2022-12-18T08:17:43.397Z,-6.42
2022-12-18T08:18:45.007Z,-6.27
2022-12-18T08:19:46.498Z,-6.16
2022-12-18T08:20:47.996Z,-6.21
2022-12-18T08:21:55.377Z,-6.19
2022-12-18T08:22:56.895Z,-6.35
2022-12-18T08:24:00.631Z,-6.01
2022-12-18T08:25:04.172Z,-6.00
2022-12-18T08:26:06.950Z,-6.32
2022-12-18T08:28:29.987Z,-6.61
2022-12-18T08:29:31.486Z,-6.25
2022-12-18T08:30:33.105Z,-6.46
2022-12-18T08:31:34.713Z,-6.65
2022-12-18T08:32:36.293Z,-6.66
2022-12-18T08:33:40.336Z,-6.35
2022-12-18T08:34:42.996Z,-6.24
2022-12-18T08:35:46.110Z,-6.80
2022-12-18T08:37:00.220Z,-6.81
2022-12-18T08:38:01.751Z,-6.51
2022-12-18T08:39:03.541Z,-6.42
2022-12-18T08:40:08.502Z,-6.46
2022-12-18T08:41:13.437Z,-6.39
2022-12-18T08:42:14.900Z,-6.41
2022-12-18T08:43:16.461Z,-6.42
2022-12-18T08:44:17.948Z,-6.35
2022-12-18T08:45:19.496Z,-6.50
2022-12-18T08:46:22.980Z,-6.63
2022-12-18T08:47:24.608Z,-6.43
2022-12-18T08:48:26.145Z,-6.14
2022-12-18T08:49:27.675Z,-6.05
2022-12-18T08:50:29.203Z,-6.27
2022-12-18T08:51:30.746Z,-6.06
2022-12-18T08:52:33.100Z,-6.36
2022-12-18T08:53:35.933Z,-6.06
2022-12-18T08:54:37.577Z,-6.02
2022-12-18T08:55:40.428Z,-5.96
2022-12-18T08:56:41.962Z,-6.24
2022-12-18T08:57:43.483Z,-6.28
2022-12-18T08:58:45.596Z,-6.46
2022-12-18T08:59:47.075Z,-6.43
2022-12-18T09:00:48.590Z,-6.60
2022-12-18T09:01:50.388Z,-6.50
2022-12-18T09:02:52.093Z,-6.41
2022-12-18T09:03:53.674Z,-6.05
2022-12-18T09:04:57.508Z,-6.40
2022-12-18T09:05:59.687Z,-6.71
2022-12-18T09:07:01.257Z,-6.54
2022-12-18T09:08:02.841Z,-6.27
2022-12-18T09:09:04.970Z,-6.52
2022-12-18T09:10:07.360Z,-6.51
2022-12-18T09:11:15.196Z,-6.56
2022-12-18T09:12:16.744Z,-6.53
2022-12-18T09:13:18.873Z,-6.50
2022-12-18T09:14:20.484Z,-6.78
2022-12-18T09:15:22.087Z,-6.50
2022-12-18T09:16:30.382Z,-6.63
2022-12-18T09:17:33.702Z,-6.67
2022-12-18T09:18:35.181Z,-6.63
2022-12-18T09:19:36.680Z,-6.38
2022-12-18T09:20:38.478Z,-6.43
2022-12-18T09:21:42.248Z,-6.47
2022-12-18T09:22:47.729Z,-6.47
2022-12-18T09:23:50.946Z,-6.08
2022-12-18T09:25:20.450Z,-6.16
2022-12-18T09:26:24.490Z,-6.22
2022-12-18T09:27:25.986Z,-6.49
2022-12-18T09:28:27.546Z,-6.15
2022-12-18T09:29:29.060Z,-6.22
2022-12-18T09:30:30.716Z,-6.23
2022-12-18T09:31:32.303Z,-6.51
2022-12-18T09:32:33.829Z,-6.30
2022-12-18T09:33:35.569Z,-6.28
2022-12-18T09:34:37.040Z,-6.24
2022-12-18T09:35:42.923Z,-6.41
2022-12-18T09:36:44.498Z,-6.39
2022-12-18T09:37:45.978Z,-6.31
2022-12-18T09:38:47.642Z,-6.14
2022-12-18T09:39:49.137Z,-6.22
2022-12-18T09:40:54.597Z,-6.11
2022-12-18T09:41:59.210Z,-6.26
2022-12-18T09:43:04.966Z,-6.38
2022-12-18T09:44:17.955Z,-6.13
2022-12-18T09:45:19.702Z,-6.17
2022-12-18T09:46:28.202Z,-6.05
2022-12-18T09:47:35.244Z,-5.82
2022-12-18T09:48:41.652Z,-6.22
2022-12-18T09:49:44.959Z,-6.22
2022-12-18T09:50:48.004Z,-6.26
2022-12-18T09:51:53.812Z,-6.55
2022-12-18T09:52:58.843Z,-6.11
2022-12-18T09:54:08.948Z,-6.26
2022-12-18T09:55:16.264Z,-6.48
2022-12-18T09:56:20.094Z,-6.17
2022-12-18T09:57:25.001Z,-6.26
2022-12-18T09:58:32.557Z,-6.01
2022-12-18T09:59:53.972Z,-6.24
2022-12-18T10:00:56.400Z,-6.24
2022-12-18T10:01:58.059Z,-5.93
2022-12-18T10:03:04.377Z,-6.02
2022-12-18T10:04:09.601Z,-5.72
2022-12-18T10:05:14.253Z,-5.62
2022-12-18T10:06:21.143Z,-5.67
2022-12-18T10:07:31.739Z,-5.81
2022-12-18T10:08:44.219Z,-6.04
2022-12-18T10:09:57.022Z,-6.12
2022-12-18T10:11:06.675Z,-5.99
2022-12-18T10:12:14.622Z,-5.65
2022-12-18T10:13:32.655Z,-5.62
2022-12-18T10:14:42.257Z,-5.87
2022-12-18T10:15:58.479Z,-5.76
2022-12-18T10:17:06.447Z,-5.67
2022-12-18T10:18:23.686Z,-5.67
2022-12-18T10:19:37.921Z,-5.51
2022-12-18T10:20:44.254Z,-5.74
2022-12-18T10:21:54.611Z,-5.84
2022-12-18T10:23:02.007Z,-5.65
2022-12-18T10:24:15.531Z,-5.69
2022-12-18T10:25:46.443Z,-5.85
2022-12-18T10:26:48.463Z,-5.73
2022-12-18T10:27:54.129Z,-5.91
2022-12-18T10:29:05.280Z,-5.76
2022-12-18T10:30:14.701Z,-5.97
2022-12-18T10:31:18.574Z,-6.22
2022-12-18T10:32:22.269Z,-5.81
2022-12-18T10:33:25.677Z,-5.98
2022-12-18T10:34:27.245Z,-5.81
2022-12-18T10:35:28.889Z,-5.78
2022-12-18T10:36:30.579Z,-5.61
2022-12-18T10:37:32.132Z,-5.70
2022-12-18T10:38:34.081Z,-5.61
2022-12-18T10:39:35.601Z,-5.50
2022-12-18T10:40:50.504Z,-5.50
2022-12-18T10:41:52.083Z,-5.44
2022-12-18T10:43:05.668Z,-5.63
2022-12-18T10:44:18.744Z,-5.69
2022-12-18T10:45:20.285Z,-5.43
2022-12-18T10:46:22.063Z,-5.47
2022-12-18T10:47:23.602Z,-5.39
2022-12-18T10:48:25.591Z,-5.32
2022-12-18T10:49:29.698Z,-5.32
2022-12-18T10:51:08.642Z,-5.61
2022-12-18T10:52:08.180Z,-5.70
2022-12-18T10:53:20.103Z,-5.43
2022-12-18T10:54:24.672Z,-5.54
2022-12-18T10:55:30.754Z,-5.57
2022-12-18T10:56:35.516Z,-5.66
2022-12-18T10:57:38.945Z,-5.47
2022-12-18T10:58:41.095Z,-5.99
2022-12-18T10:59:52.077Z,-5.90
2022-12-18T11:01:09.533Z,-6.14
2022-12-18T11:02:27.632Z,-6.18
2022-12-18T11:03:33.092Z,-5.96
2022-12-18T11:04:34.689Z,-5.82
2022-12-18T11:05:36.455Z,-6.00
2022-12-18T11:06:54.373Z,-6.00
2022-12-18T11:07:56.663Z,-5.75
2022-12-18T11:09:00.987Z,-5.85
2022-12-18T11:10:02.752Z,-5.66
2022-12-18T11:11:08.148Z,-5.96
2022-12-18T11:12:17.719Z,-5.99
2022-12-18T11:13:21.684Z,-5.69
2022-12-18T11:14:25.897Z,-5.91
2022-12-18T11:15:31.236Z,-5.83
2022-12-18T11:16:37.369Z,-6.09
2022-12-18T11:17:40.048Z,-6.14
2022-12-18T11:18:42.093Z,-5.79
2022-12-18T11:19:44.026Z,-5.66
2022-12-18T11:20:56.898Z,-5.85
2022-12-18T11:22:01.602Z,-6.21
2022-12-18T11:23:05.429Z,-6.06
2022-12-18T11:24:21.328Z,-5.64
2022-12-18T11:25:33.195Z,-5.35
2022-12-18T11:26:36.295Z,-5.12
2022-12-18T11:27:39.210Z,-5.44
2022-12-18T11:28:43.299Z,-5.46
2022-12-18T11:29:46.865Z,-5.50
2022-12-18T11:30:49.902Z,-5.50
2022-12-18T11:31:51.411Z,-5.49
2022-12-18T11:33:01.327Z,-5.84
2022-12-18T11:34:28.724Z,-5.59
2022-12-18T11:35:47.923Z,-5.50
2022-12-18T11:36:49.654Z,-5.82
2022-12-18T11:37:57.168Z,-5.50
2022-12-18T11:39:02.790Z,-5.05
2022-12-18T11:40:11.358Z,-5.17
2022-12-18T11:41:22.409Z,-5.48
2022-12-18T11:42:33.646Z,-5.73
2022-12-18T11:43:42.010Z,-5.41
2022-12-18T11:44:49.111Z,-5.66
2022-12-18T11:45:55.788Z,-5.69
2022-12-18T11:47:02.540Z,-5.71
2022-12-18T11:48:13.899Z,-5.74
2022-12-18T11:49:18.095Z,-5.70
2022-12-18T11:50:24.550Z,-5.70
2022-12-18T11:51:31.007Z,-5.68
2022-12-18T11:52:38.877Z,-5.81
2022-12-18T11:53:40.402Z,-5.57
2022-12-18T11:54:42.029Z,-5.48
2022-12-18T11:55:52.989Z,-5.36
2022-12-18T11:56:59.488Z,-5.50
2022-12-18T11:58:09.730Z,-5.35
2022-12-18T11:59:20.443Z,-5.26
2022-12-18T12:00:24.074Z,-5.13
2022-12-18T12:01:44.344Z,-5.36
2022-12-18T12:03:13.527Z,-5.49
2022-12-18T12:04:34.982Z,-5.31
2022-12-18T12:05:49.579Z,-5.31
2022-12-18T12:07:03.219Z,-5.48
2022-12-18T12:08:12.736Z,-5.40
2022-12-18T12:09:21.439Z,-5.32
2022-12-18T12:10:38.776Z,-5.57
2022-12-18T12:11:49.252Z,-5.45
2022-12-18T12:13:04.263Z,-4.93
2022-12-18T12:14:19.986Z,-5.37
2022-12-18T12:15:35.462Z,-5.32
2022-12-18T12:16:46.489Z,-5.27
2022-12-18T12:17:55.318Z,-5.14
2022-12-18T12:19:23.401Z,-5.40
2022-12-18T12:20:38.907Z,-5.29
2022-12-18T12:21:42.575Z,-5.44
2022-12-18T12:22:53.473Z,-5.40
2022-12-18T12:24:03.232Z,-5.50
2022-12-18T12:25:24.381Z,-5.72
2022-12-18T12:26:35.262Z,-5.27
2022-12-18T12:27:47.267Z,-5.82
2022-12-18T12:29:20.816Z,-5.75
2022-12-18T12:30:32.957Z,-5.68
2022-12-18T12:31:52.159Z,-5.99
2022-12-18T12:33:10.907Z,-5.84
2022-12-18T12:34:19.196Z,-5.78
2022-12-18T12:35:35.090Z,-5.56
2022-12-18T12:36:47.306Z,-5.20
2022-12-18T12:38:01.341Z,-5.45
2022-12-18T12:39:08.360Z,-5.31
2022-12-18T12:40:48.421Z,-5.04
2022-12-18T12:41:37.839Z,-5.35
2022-12-18T12:42:45.523Z,-5.24
2022-12-18T12:43:51.013Z,-5.24
2022-12-18T12:44:57.172Z,-5.14
2022-12-18T12:46:04.783Z,-5.30
2022-12-18T12:47:14.194Z,-5.01
2022-12-18T12:48:21.604Z,-5.30
2022-12-18T12:49:28.553Z,-5.38
2022-12-18T12:50:33.974Z,-5.06
2022-12-18T12:51:39.963Z,-5.12
2022-12-18T12:52:46.596Z,-4.98
2022-12-18T12:53:49.293Z,-4.95
2022-12-18T12:54:51.956Z,-5.54
2022-12-18T12:55:54.752Z,-5.47
2022-12-18T12:57:03.647Z,-5.32
2022-12-18T12:58:13.002Z,-5.44
2022-12-18T12:59:20.301Z,-5.33
2022-12-18T13:00:23.015Z,-5.03
2022-12-18T13:01:36.222Z,-4.99
2022-12-18T13:02:46.653Z,-4.93
2022-12-18T13:03:57.775Z,-5.14
2022-12-18T13:05:04.747Z,-5.16
2022-12-18T13:06:13.785Z,-5.28
2022-12-18T13:07:21.173Z,-5.49
2022-12-18T13:08:25.613Z,-5.49
2022-12-18T13:09:31.307Z,-5.63
2022-12-18T13:10:36.430Z,-5.51
2022-12-18T13:11:40.920Z,-5.47
2022-12-18T13:12:53.087Z,-5.84
2022-12-18T13:13:57.037Z,-5.06
2022-12-18T13:15:13.476Z,-5.21
2022-12-18T13:16:20.080Z,-5.42
2022-12-18T13:17:29.924Z,-5.50
2022-12-18T13:18:33.801Z,-5.34
2022-12-18T13:19:36.222Z,-5.74
2022-12-18T13:20:40.408Z,-5.35
2022-12-18T13:21:41.955Z,-5.22
2022-12-18T13:22:46.600Z,-5.62
2022-12-18T13:23:48.229Z,-5.53
2022-12-18T13:24:50.179Z,-5.41
2022-12-18T13:25:53.405Z,-5.54
2022-12-18T13:26:55.144Z,-5.05
2022-12-18T13:28:04.527Z,-5.01
2022-12-18T13:29:06.087Z,-5.34
2022-12-18T13:30:43.882Z,-5.43
2022-12-18T13:32:00.307Z,-5.36
2022-12-18T13:33:56.247Z,-5.70
2022-12-18T13:35:41.672Z,-5.78
2022-12-18T13:36:43.515Z,-5.43
2022-12-18T13:37:51.889Z,-5.30
2022-12-18T13:39:28.607Z,-5.34
2022-12-18T13:40:56.134Z,-5.32
2022-12-18T13:42:30.874Z,-5.47
2022-12-18T13:43:38.340Z,-5.68
2022-12-18T13:44:43.021Z,-5.69
2022-12-18T13:45:48.669Z,-5.49
2022-12-18T13:46:52.345Z,-5.73
2022-12-18T13:47:54.545Z,-5.66
2022-12-18T13:49:02.628Z,-5.97
2022-12-18T13:50:20.790Z,-5.76
2022-12-18T13:51:23.840Z,-5.72
2022-12-18T13:52:27.526Z,-5.79
2022-12-18T13:53:35.084Z,-5.46
2022-12-18T13:54:39.984Z,-5.72
2022-12-18T13:55:45.814Z,-5.38
2022-12-18T13:56:49.376Z,-5.14
2022-12-18T13:58:04.013Z,-5.13
2022-12-18T13:59:17.798Z,-5.45
2022-12-18T14:00:28.476Z,-5.67